Time;durP1;ratioP1;P1;durP2;ratioP2;P2;SDS_P1;SDS_P2;PMS_P1;PMS_P2;Temp;Humidity;BMP_temperature;BMP_pressure;BME280_temperature;BME280_humidity;BME280_pressure;Samples;Min_cycle;Max_cycle;Signal;HPM_P1;HPM_P2
2023/01/14 00:01:23;;;;;;;9.63;2.78;;;6.90;99.90;;;;;;5056727;28;25067;-72
2023/01/14 00:03:50;;;;;;;9.30;2.63;;;6.90;99.90;;;;;;5038802;28;25129;-72
2023/01/14 00:06:21;;;;;;;13.40;4.05;;;6.90;99.90;;;;;;5059825;28;25077;-72
2023/01/14 00:08:54;;;;;;;19.10;2.65;;;6.90;99.90;;;;;;5060331;28;25078;-72
2023/01/14 00:11:45;;;;;;;6.70;2.28;;;6.90;99.90;;;;;;5060150;28;25067;-72
2023/01/14 00:14:11;;;;;;;9.20;2.80;;;6.90;99.90;;;;;;5059817;28;25088;-72
2023/01/14 00:16:38;;;;;;;12.02;3.25;;;6.90;99.90;;;;;;5042394;28;25046;-72
2023/01/14 00:19:06;;;;;;;8.45;2.22;;;6.90;99.90;;;;;;5060736;28;25076;-72
2023/01/14 00:21:33;;;;;;;6.85;2.55;;;6.80;99.90;;;;;;5059983;28;25054;-72
2023/01/14 00:24:01;;;;;;;11.00;2.63;;;6.80;99.90;;;;;;5042269;28;25062;-72
2023/01/14 00:26:29;;;;;;;6.07;2.22;;;6.80;99.90;;;;;;5059965;28;25067;-72
2023/01/14 00:28:56;;;;;;;6.43;1.95;;;6.80;99.90;;;;;;5059980;28;25106;-72
2023/01/14 00:31:26;;;;;;;8.77;1.70;;;6.80;99.90;;;;;;5059735;28;25053;-72
2023/01/14 00:33:54;;;;;;;5.35;1.80;;;6.80;99.90;;;;;;5059610;28;25069;-72
2023/01/14 00:36:23;;;;;;;6.93;1.77;;;6.80;99.90;;;;;;5041937;28;25115;-72
2023/01/14 00:38:52;;;;;;;6.25;1.45;;;6.80;99.90;;;;;;5059858;28;25061;-72
2023/01/14 00:41:23;;;;;;;5.22;1.30;;;6.80;99.90;;;;;;5060224;28;25052;-72
2023/01/14 00:43:53;;;;;;;3.83;1.30;;;6.70;99.90;;;;;;5059656;28;25063;-72
2023/01/14 00:46:29;;;;;;;8.63;1.30;;;6.70;99.90;;;;;;5060126;28;25061;-72
2023/01/14 00:48:58;;;;;;;9.43;1.40;;;6.70;99.90;;;;;;5042001;28;25053;-72
2023/01/14 00:51:26;;;;;;;7.40;1.23;;;6.70;99.90;;;;;;5041727;28;25125;-72
2023/01/14 00:53:53;;;;;;;7.05;1.67;;;6.70;99.90;;;;;;5041688;28;25072;-72
2023/01/14 00:56:22;;;;;;;16.27;1.92;;;6.70;99.90;;;;;;5059290;28;25052;-72
2023/01/14 00:58:50;;;;;;;5.80;1.15;;;6.70;99.90;;;;;;5059520;28;25126;-72
2023/01/14 01:01:17;;;;;;;9.60;1.35;;;6.60;99.90;;;;;;5059244;28;25130;-72
2023/01/14 01:03:49;;;;;;;7.55;1.17;;;6.70;99.90;;;;;;5059257;28;25074;-72
2023/01/14 01:06:18;;;;;;;6.25;0.85;;;6.70;99.90;;;;;;5059754;28;25077;-72
2023/01/14 01:08:46;;;;;;;8.23;1.05;;;6.70;99.90;;;;;;5041384;28;25078;-72
2023/01/14 01:11:13;;;;;;;3.50;0.88;;;6.80;99.90;;;;;;5059073;28;25062;-72
2023/01/14 01:13:40;;;;;;;6.47;1.90;;;6.70;99.90;;;;;;5058972;28;25072;-72
2023/01/14 01:16:13;;;;;;;4.70;1.02;;;6.80;99.90;;;;;;5039896;28;25052;-72
2023/01/14 01:18:41;;;;;;;6.53;1.35;;;6.70;99.90;;;;;;5059198;28;25085;-72
2023/01/14 01:21:15;;;;;;;8.07;1.13;;;6.80;99.90;;;;;;5041220;28;25059;-72
2023/01/14 01:23:43;;;;;;;5.65;1.05;;;6.80;99.90;;;;;;5058979;28;25103;-72
2023/01/14 01:26:19;;;;;;;7.90;1.25;;;6.70;99.90;;;;;;5041492;28;25058;-72
2023/01/14 01:28:53;;;;;;;8.95;0.85;;;6.70;99.90;;;;;;5058836;28;25098;-72
2023/01/14 01:31:21;;;;;;;11.02;1.40;;;6.70;99.90;;;;;;5058727;28;25055;-72
2023/01/14 01:33:49;;;;;;;3.60;1.13;;;6.70;99.90;;;;;;5058807;28;25087;-72
2023/01/14 01:36:22;;;;;;;11.38;1.25;;;6.60;99.90;;;;;;5040827;28;25055;-72
2023/01/14 01:38:50;;;;;;;5.90;1.38;;;6.60;99.90;;;;;;5058579;28;25112;-72
2023/01/14 01:41:22;;;;;;;9.48;2.10;;;6.60;99.90;;;;;;5059087;28;25056;-72
2023/01/14 01:44:16;;;;;;;5.90;1.27;;;6.60;99.90;;;;;;5040951;28;25095;-72
2023/01/14 01:46:43;;;;;;;3.13;0.82;;;6.50;99.90;;;;;;5057288;28;25073;-72
2023/01/14 01:49:29;;;;;;;4.20;1.10;;;6.50;99.90;;;;;;5058480;28;25079;-72
2023/01/14 01:52:08;;;;;;;1.08;0.52;;;6.50;99.90;;;;;;5058620;28;25122;-72
2023/01/14 01:54:44;;;;;;;4.60;1.45;;;6.40;99.90;;;;;;5058407;28;25083;-72
2023/01/14 01:57:14;;;;;;;7.03;1.48;;;6.40;99.90;;;;;;5058263;28;25068;-72
2023/01/14 01:59:46;;;;;;;10.18;2.05;;;6.40;99.90;;;;;;5058157;28;25118;-72
2023/01/14 02:02:14;;;;;;;9.32;2.00;;;6.30;99.90;;;;;;5058710;28;25081;-72
2023/01/14 02:04:41;;;;;;;8.15;1.80;;;6.30;99.90;;;;;;5058538;28;25054;-72
2023/01/14 02:07:21;;;;;;;8.27;2.10;;;6.30;99.90;;;;;;5058757;28;25125;-72
2023/01/14 02:10:00;;;;;;;5.82;1.45;;;6.30;99.90;;;;;;5058298;28;25066;-72
2023/01/14 02:12:51;;;;;;;5.47;1.42;;;6.20;99.90;;;;;;5058511;28;25067;-72
2023/01/14 02:15:40;;;;;;;7.68;1.67;;;6.20;99.90;;;;;;5058023;28;25053;-72
2023/01/14 02:18:27;;;;;;;7.30;1.55;;;6.10;99.90;;;;;;5057858;28;25079;-72
2023/01/14 02:21:06;;;;;;;6.55;1.35;;;6.00;99.90;;;;;;5040099;28;25069;-72
2023/01/14 02:24:10;;;;;;;12.43;2.58;;;6.00;99.90;;;;;;5040099;28;25050;-72
2023/01/14 02:27:13;;;;;;;6.53;3.35;;;6.00;99.90;;;;;;5058241;28;25104;-72
2023/01/14 02:30:00;;;;;;;12.55;3.35;;;6.00;99.90;;;;;;5058119;28;25077;-72
2023/01/14 02:32:35;;;;;;;8.40;3.78;;;5.90;99.90;;;;;;5057387;28;25065;-72
2023/01/14 02:35:18;;;;;;;18.08;3.85;;;5.90;99.90;;;;;;5056449;28;25152;-72
2023/01/14 02:38:28;;;;;;;10.65;2.78;;;5.90;99.90;;;;;;5057951;28;25098;-72
2023/01/14 02:41:10;;;;;;;14.77;3.28;;;6.00;99.90;;;;;;5057274;28;25075;-72
2023/01/14 02:46:37;;;;;;;17.20;3.97;;;6.20;99.90;;;;;;5057504;28;25075;-72
2023/01/14 02:49:07;;;;;;;15.68;3.75;;;6.20;99.90;;;;;;5057990;28;25089;-72
2023/01/14 02:51:34;;;;;;;20.83;5.22;;;6.30;99.90;;;;;;5057781;28;25132;-72
2023/01/14 02:54:02;;;;;;;12.60;3.85;;;6.40;99.90;;;;;;5057073;28;25118;-72
2023/01/14 02:56:29;;;;;;;17.23;3.97;;;6.40;99.90;;;;;;5056945;28;25076;-72
2023/01/14 02:59:32;;;;;;;23.02;4.93;;;6.50;99.90;;;;;;5057262;28;25080;-72
2023/01/14 03:02:52;;;;;;;12.63;4.03;;;6.50;99.90;;;;;;5057045;28;25115;-72
2023/01/14 03:05:38;;;;;;;21.20;4.60;;;6.50;99.90;;;;;;5039858;28;25063;-72
2023/01/14 03:08:25;;;;;;;12.13;3.38;;;6.50;99.90;;;;;;5056741;28;25084;-72
2023/01/14 03:11:12;;;;;;;18.60;4.25;;;6.50;99.90;;;;;;5056888;28;25056;-72
2023/01/14 03:13:52;;;;;;;21.95;4.00;;;6.50;99.90;;;;;;5056835;28;25061;-72
2023/01/14 03:16:40;;;;;;;14.05;3.10;;;6.50;99.90;;;;;;5039005;28;25054;-72
2023/01/14 03:19:25;;;;;;;14.27;4.60;;;6.50;99.90;;;;;;5056917;28;25066;-72
2023/01/14 03:21:55;;;;;;;26.52;5.10;;;6.50;99.90;;;;;;5039028;28;25075;-72
2023/01/14 03:24:35;;;;;;;17.60;3.72;;;6.60;99.90;;;;;;5056695;28;25152;-72
2023/01/14 03:27:18;;;;;;;19.58;3.67;;;6.60;99.90;;;;;;5057160;28;25112;-72
2023/01/14 03:29:51;;;;;;;22.45;4.90;;;6.60;99.90;;;;;;5055767;28;20398;-72
2023/01/14 03:32:45;;;;;;;19.20;3.97;;;6.60;99.90;;;;;;5057077;28;25080;-72
2023/01/14 03:35:26;;;;;;;26.25;4.43;;;6.60;99.90;;;;;;5076467;28;25096;-72
2023/01/14 03:38:02;;;;;;;16.65;3.20;;;6.70;99.90;;;;;;5058602;28;25066;-72
2023/01/14 03:40:32;;;;;;;16.27;2.63;;;6.70;99.90;;;;;;5075749;28;25092;-72
2023/01/14 03:43:08;;;;;;;14.57;3.30;;;6.70;99.90;;;;;;5076649;28;25066;-72
2023/01/14 03:45:38;;;;;;;17.15;3.53;;;6.70;99.90;;;;;;5076438;28;25055;-72
2023/01/14 03:48:07;;;;;;;20.08;4.50;;;6.70;99.90;;;;;;5076952;28;25078;-72
2023/01/14 03:50:46;;;;;;;23.38;4.40;;;6.70;99.90;;;;;;5076348;28;25110;-72
2023/01/14 03:53:40;;;;;;;17.55;3.72;;;6.70;99.90;;;;;;5076725;28;25122;-72
2023/01/14 03:56:40;;;;;;;16.38;4.15;;;6.60;99.90;;;;;;5076463;28;25071;-72
2023/01/14 03:59:16;;;;;;;12.90;3.25;;;6.70;99.90;;;;;;5076216;28;25116;-72
2023/01/14 04:01:52;;;;;;;17.63;3.38;;;6.70;99.90;;;;;;5076243;28;25083;-72
2023/01/14 04:04:21;;;;;;;;;;;6.70;99.90;;;;;;5077064;28;25086;-72
2023/01/14 04:06:49;;;;;;;19.08;3.53;;;6.70;99.90;;;;;;5076208;28;25102;-72
2023/01/14 04:09:16;;;;;;;18.17;3.88;;;6.70;99.90;;;;;;5076698;28;25049;-72
2023/01/14 04:11:43;;;;;;;24.75;3.15;;;6.70;99.90;;;;;;5058379;28;25061;-72
2023/01/14 04:16:56;;;;;;;13.52;2.70;;;6.70;99.90;;;;;;5076414;28;25111;-72
2023/01/14 04:19:23;;;;;;;20.98;3.58;;;6.70;99.90;;;;;;5059098;28;25070;-72
2023/01/14 04:21:51;;;;;;;22.92;4.20;;;6.70;99.90;;;;;;5058289;28;25062;-72
2023/01/14 04:24:18;;;;;;;17.88;3.05;;;6.70;99.90;;;;;;5076072;28;25093;-72
2023/01/14 04:26:45;;;;;;;12.73;3.13;;;6.70;99.90;;;;;;5075915;28;25058;-72
2023/01/14 04:29:13;;;;;;;32.17;4.03;;;6.70;99.90;;;;;;5059056;28;25076;-72
2023/01/14 04:31:40;;;;;;;18.50;3.03;;;6.70;99.90;;;;;;5058177;28;25115;-72
2023/01/14 04:34:08;;;;;;;19.17;3.10;;;6.60;99.90;;;;;;5068688;28;25073;-72
2023/01/14 04:36:36;;;;;;;19.05;2.63;;;6.60;99.90;;;;;;5075862;28;25093;-72
2023/01/14 04:39:03;;;;;;;16.83;3.00;;;6.60;99.90;;;;;;5076135;28;25130;-72
2023/01/14 04:44:16;;;;;;;22.70;3.60;;;6.60;99.90;;;;;;5076302;28;25054;-72
2023/01/14 04:46:43;;;;;;;27.23;3.80;;;6.60;99.90;;;;;;5075842;28;25131;-72
2023/01/14 04:49:11;;;;;;;16.30;2.95;;;6.60;99.90;;;;;;5075885;28;25060;-72
2023/01/14 04:51:38;;;;;;;19.00;4.68;;;6.60;99.90;;;;;;5077659;28;25066;-72
2023/01/14 04:54:06;;;;;;;16.05;3.38;;;6.60;99.90;;;;;;5079645;28;25061;-72
2023/01/14 04:56:33;;;;;;;22.08;2.72;;;6.50;99.90;;;;;;5079903;28;25063;-72
2023/01/14 04:59:02;;;;;;;17.08;3.30;;;6.60;99.90;;;;;;5078729;28;25056;-72
2023/01/14 05:01:32;;;;;;;22.38;4.07;;;6.60;99.90;;;;;;5079307;28;25116;-72
2023/01/14 05:03:59;;;;;;;10.80;2.17;;;6.50;99.90;;;;;;5080052;28;25119;-72
2023/01/14 05:06:28;;;;;;;16.17;2.88;;;6.60;99.90;;;;;;5079755;28;25058;-72
2023/01/14 05:08:55;;;;;;;15.40;2.85;;;6.60;99.90;;;;;;5079736;28;25112;-72
2023/01/14 05:11:23;;;;;;;18.95;4.38;;;6.60;99.90;;;;;;5079089;28;25060;-72
2023/01/14 05:13:50;;;;;;;22.25;3.33;;;6.60;99.90;;;;;;5079582;28;25070;-72
2023/01/14 05:16:18;;;;;;;24.23;3.53;;;6.60;99.90;;;;;;5079541;28;25054;-72
2023/01/14 05:18:46;;;;;;;14.68;3.88;;;6.60;99.90;;;;;;5078997;28;25116;-72
2023/01/14 05:21:13;;;;;;;14.57;3.10;;;6.50;99.90;;;;;;5078980;28;25074;-72
2023/01/14 05:23:41;;;;;;;21.85;5.45;;;6.50;99.90;;;;;;5079241;28;25070;-72
2023/01/14 05:26:08;;;;;;;19.27;2.70;;;6.50;99.90;;;;;;5077786;28;25109;-72
2023/01/14 05:28:36;;;;;;;18.63;3.17;;;6.50;99.90;;;;;;5078810;28;25063;-72
2023/01/14 05:31:04;;;;;;;26.08;3.67;;;6.50;99.90;;;;;;5078731;28;25104;-72
2023/01/14 05:33:32;;;;;;;22.23;3.67;;;6.50;99.90;;;;;;5077629;28;25107;-72
2023/01/14 05:36:00;;;;;;;22.40;3.35;;;6.50;99.90;;;;;;5078649;28;25120;-72
2023/01/14 05:38:28;;;;;;;20.23;4.97;;;6.50;99.90;;;;;;5078904;28;25074;-72
2023/01/14 05:40:55;;;;;;;22.85;2.25;;;6.50;99.90;;;;;;5078641;28;25069;-72
2023/01/14 05:46:16;;;;;;;13.20;3.10;;;6.50;99.90;;;;;;5079090;28;25052;-72
2023/01/14 05:48:44;;;;;;;19.65;3.38;;;6.50;99.90;;;;;;5078485;28;25065;-72
2023/01/14 05:51:12;;;;;;;14.95;2.53;;;6.50;99.90;;;;;;5078452;28;25062;-72
2023/01/14 05:53:40;;;;;;;14.20;4.65;;;6.50;99.90;;;;;;5078524;28;25071;-72
2023/01/14 05:56:07;;;;;;;19.23;4.28;;;6.50;99.90;;;;;;5077177;28;25143;-72
2023/01/14 05:58:35;;;;;;;19.08;3.17;;;6.40;99.90;;;;;;5077619;28;25072;-72
2023/01/14 06:06:47;;;;;;;15.43;3.65;;;6.30;99.90;;;;;;5078710;28;25127;-72
2023/01/14 06:09:17;;;;;;;18.58;2.50;;;6.20;99.90;;;;;;5077978;28;25081;-72
2023/01/14 06:12:04;;;;;;;19.60;3.25;;;6.10;99.90;;;;;;5078057;28;25109;-72
2023/01/14 06:14:34;;;;;;;11.15;2.20;;;6.10;99.90;;;;;;5077011;28;25065;-72
2023/01/14 06:17:09;;;;;;;20.83;2.58;;;6.00;99.90;;;;;;5077950;28;25078;-72
2023/01/14 06:19:37;;;;;;;19.52;3.70;;;6.00;99.90;;;;;;5078052;28;25088;-72
2023/01/14 06:22:06;;;;;;;19.25;3.17;;;5.90;99.90;;;;;;5076715;28;25074;-72
2023/01/14 06:24:33;;;;;;;13.60;2.95;;;5.80;99.90;;;;;;5077879;28;25068;-72
2023/01/14 06:27:01;;;;;;;20.27;3.63;;;5.80;99.90;;;;;;5076636;28;25062;-72
2023/01/14 06:29:28;;;;;;;24.98;3.47;;;5.80;99.90;;;;;;5077639;28;25110;-72
2023/01/14 06:31:55;;;;;;;15.88;2.50;;;5.70;99.90;;;;;;5076510;28;25097;-72
2023/01/14 06:34:23;;;;;;;19.85;3.42;;;5.70;99.90;;;;;;5061871;28;25084;-72
2023/01/14 06:36:50;;;;;;;15.35;3.97;;;5.70;99.90;;;;;;5057546;28;25133;-72
2023/01/14 06:39:18;;;;;;;16.23;2.95;;;5.70;99.90;;;;;;5057980;28;25117;-72
2023/01/14 06:41:45;;;;;;;19.35;2.72;;;5.70;99.90;;;;;;5057408;28;25137;-72
2023/01/14 06:44:12;;;;;;;9.52;2.70;;;5.60;99.90;;;;;;5039822;28;25058;-72
2023/01/14 06:46:39;;;;;;;20.13;3.70;;;5.60;99.90;;;;;;5057895;28;25138;-72
2023/01/14 06:49:08;;;;;;;10.52;2.58;;;5.60;99.90;;;;;;5039750;28;25069;-72
2023/01/14 06:51:35;;;;;;;18.98;2.10;;;5.60;99.90;;;;;;5057139;28;25073;-72
2023/01/14 06:54:03;;;;;;;12.93;2.85;;;5.70;99.90;;;;;;5057328;28;25080;-72
2023/01/14 06:56:32;;;;;;;14.55;1.95;;;5.70;99.90;;;;;;5039355;28;25054;-72
2023/01/14 06:59:00;;;;;;;12.15;2.67;;;5.70;99.90;;;;;;5039406;28;25068;-72
2023/01/14 07:01:27;;;;;;;11.63;3.35;;;5.80;99.90;;;;;;5039288;28;25089;-72
2023/01/14 07:03:55;;;;;;;15.85;2.75;;;5.80;99.90;;;;;;5057740;28;25092;-72
2023/01/14 07:06:22;;;;;;;12.18;2.17;;;5.80;99.90;;;;;;5039356;28;25060;-72
2023/01/14 07:08:49;;;;;;;12.93;2.45;;;5.80;99.90;;;;;;5057369;28;25119;-72
2023/01/14 07:11:17;;;;;;;18.67;2.08;;;5.80;99.90;;;;;;5056800;28;25081;-72
2023/01/14 07:13:44;;;;;;;10.82;1.55;;;5.80;99.90;;;;;;5056780;28;25107;-72
2023/01/14 07:16:11;;;;;;;16.80;2.45;;;5.70;99.90;;;;;;5056489;28;25128;-74
2023/01/14 07:18:39;;;;;;;15.55;1.98;;;5.70;99.90;;;;;;5056728;28;25068;-82
2023/01/14 07:21:06;;;;;;;19.25;3.35;;;5.70;99.90;;;;;;5057013;28;25051;-82
2023/01/14 07:23:34;;;;;;;18.45;2.08;;;5.70;99.90;;;;;;5039169;28;25063;-85
2023/01/14 07:26:01;;;;;;;10.43;2.28;;;5.70;99.90;;;;;;5057082;28;25059;-82
2023/01/14 07:28:29;;;;;;;16.65;1.88;;;5.70;99.90;;;;;;5038705;28;25144;-82
2023/01/14 07:30:57;;;;;;;26.60;4.95;;;5.70;99.90;;;;;;5056540;28;25089;-86
2023/01/14 07:33:24;;;;;;;5.05;1.10;;;5.70;99.90;;;;;;5056965;28;25062;-82
2023/01/14 07:35:52;;;;;;;13.55;2.60;;;5.70;99.90;;;;;;5038751;28;25107;-82
2023/01/14 07:38:20;;;;;;;11.43;2.00;;;5.70;99.90;;;;;;5056444;28;25095;-79
2023/01/14 07:40:47;;;;;;;12.73;1.70;;;5.70;99.90;;;;;;5056596;28;25067;-84
2023/01/14 07:43:15;;;;;;;9.45;3.72;;;5.80;99.90;;;;;;5038982;28;25045;-78
2023/01/14 07:45:42;;;;;;;13.95;2.47;;;5.80;99.90;;;;;;5038742;28;25076;-79
2023/01/14 07:48:09;;;;;;;11.07;2.10;;;5.80;99.90;;;;;;5056380;28;25052;-81
2023/01/14 07:50:37;;;;;;;8.95;1.92;;;5.80;99.90;;;;;;5056592;28;25063;-75
2023/01/14 07:53:05;;;;;;;16.65;4.30;;;5.80;99.90;;;;;;5056418;28;25085;-76
2023/01/14 07:55:34;;;;;;;12.07;1.73;;;5.80;99.90;;;;;;5056763;28;25069;-78
2023/01/14 07:58:01;;;;;;;18.38;2.63;;;5.80;99.90;;;;;;5056585;28;25056;-77
2023/01/14 08:00:29;;;;;;;11.30;2.03;;;5.80;99.90;;;;;;5038566;28;25060;-77
2023/01/14 08:02:57;;;;;;;9.48;2.20;;;5.80;99.90;;;;;;5056623;28;25079;-77
2023/01/14 08:05:24;;;;;;;15.50;2.97;;;5.80;99.90;;;;;;5038584;28;25055;-77
2023/01/14 08:07:51;;;;;;;19.55;2.03;;;5.80;99.90;;;;;;5038342;28;25055;-76
2023/01/14 08:10:19;;;;;;;16.58;3.00;;;5.80;99.90;;;;;;5056093;28;25068;-76
2023/01/14 08:12:49;;;;;;;11.02;2.53;;;5.80;99.90;;;;;;5056073;28;25076;-75
2023/01/14 08:15:19;;;;;;;11.35;2.17;;;5.80;99.90;;;;;;5056200;28;25099;-77
2023/01/14 08:17:46;;;;;;;10.48;4.32;;;5.90;99.90;;;;;;5055960;28;25094;-77
2023/01/14 08:20:14;;;;;;;10.45;4.15;;;5.90;99.90;;;;;;5056002;28;25072;-76
2023/01/14 08:22:42;;;;;;;16.77;3.78;;;5.90;99.90;;;;;;5055938;28;25062;-70
2023/01/14 08:25:09;;;;;;;6.63;2.20;;;5.90;99.90;;;;;;5038284;28;25103;-69
2023/01/14 08:27:37;;;;;;;10.10;1.98;;;6.00;99.90;;;;;;5060162;28;25059;-72
2023/01/14 08:30:06;;;;;;;9.70;2.60;;;6.00;99.90;;;;;;5060088;28;25055;-71
2023/01/14 08:32:33;;;;;;;11.18;1.98;;;6.00;99.90;;;;;;5060130;28;25070;-71
2023/01/14 08:35:00;;;;;;;11.15;2.17;;;6.10;99.90;;;;;;5078474;28;25053;-71
2023/01/14 08:37:28;;;;;;;17.80;5.20;;;6.10;99.90;;;;;;5078636;28;25086;-70
2023/01/14 08:39:55;;;;;;;11.00;3.33;;;6.10;99.90;;;;;;5079823;28;25072;-70
2023/01/14 08:42:22;;;;;;;16.88;3.80;;;6.10;99.90;;;;;;5079706;28;25050;-71
2023/01/14 08:44:50;;;;;;;25.58;6.63;;;6.20;99.90;;;;;;5079680;28;25046;-70
2023/01/14 08:47:17;;;;;;;17.75;5.25;;;6.20;99.90;;;;;;5079547;28;25071;-69
2023/01/14 08:49:45;;;;;;;25.05;7.28;;;6.20;99.90;;;;;;5079736;28;25120;-72
2023/01/14 08:52:12;;;;;;;20.85;3.33;;;6.20;99.90;;;;;;5079428;28;25063;-72
2023/01/14 08:54:39;;;;;;;9.55;2.13;;;6.20;99.90;;;;;;5078377;28;25057;-72
2023/01/14 08:57:07;;;;;;;12.52;4.35;;;6.30;99.90;;;;;;5079996;28;25099;-70
2023/01/14 08:59:35;;;;;;;8.57;1.75;;;6.30;99.90;;;;;;5079557;28;25056;-71
2023/01/14 09:02:03;;;;;;;13.65;1.60;;;6.30;99.90;;;;;;5079336;28;25067;-72
2023/01/14 09:04:30;;;;;;;18.30;3.25;;;6.40;99.90;;;;;;5079372;28;25062;-71
2023/01/14 09:18:03;;;;;;;11.65;2.08;;;6.50;99.90;;;;;;5079510;28;25051;-72
2023/01/14 09:20:36;;;;;;;10.60;1.70;;;6.60;99.90;;;;;;5079363;28;25130;-70
2023/01/14 09:23:06;;;;;;;14.90;3.03;;;6.60;99.90;;;;;;5078819;28;25054;-70
2023/01/14 09:25:34;;;;;;;9.45;2.25;;;6.60;99.90;;;;;;5077839;28;25087;-71
2023/01/14 09:28:01;;;;;;;12.57;1.70;;;6.60;99.90;;;;;;5079465;28;25073;-70
2023/01/14 09:30:28;;;;;;;2.30;0.90;;;6.70;99.90;;;;;;5078881;28;25106;-70
2023/01/14 09:32:56;;;;;;;8.15;1.52;;;6.70;99.90;;;;;;5077585;28;25077;-71
2023/01/14 09:35:23;;;;;;;7.80;1.73;;;6.70;99.90;;;;;;5077309;28;25065;-71
2023/01/14 09:37:50;;;;;;;4.57;1.42;;;6.70;99.90;;;;;;5076447;28;25052;-71
2023/01/14 09:40:18;;;;;;;33.90;5.45;;;6.70;99.90;;;;;;5078722;28;25060;-70
2023/01/14 09:42:47;;;;;;;7.60;1.77;;;6.60;99.90;;;;;;5077872;28;25094;-71
2023/01/14 09:45:17;;;;;;;7.90;1.70;;;6.60;99.90;;;;;;5077464;28;25114;-71
2023/01/14 09:47:45;;;;;;;13.77;1.52;;;6.50;99.90;;;;;;5079146;28;25077;-71
2023/01/14 09:50:22;;;;;;;9.10;1.55;;;6.50;99.90;;;;;;5077422;28;25086;-70
2023/01/14 09:52:57;;;;;;;6.97;1.98;;;6.40;99.90;;;;;;5079121;28;25060;-71
2023/01/14 09:55:45;;;;;;;19.40;2.15;;;6.40;99.90;;;;;;5077203;28;25110;-69
2023/01/14 09:58:47;;;;;;;10.13;2.10;;;6.30;99.90;;;;;;5078882;28;25058;-73
2023/01/14 10:01:32;;;;;;;12.25;2.50;;;6.30;99.90;;;;;;5078785;28;25121;-72
2023/01/14 10:04:42;;;;;;;9.25;1.67;;;6.30;99.90;;;;;;5078953;28;25152;-73
2023/01/14 10:07:12;;;;;;;11.43;1.35;;;6.20;99.90;;;;;;5078422;28;25056;-73
2023/01/14 10:09:51;;;;;;;13.10;2.63;;;6.20;99.90;;;;;;5078136;28;25083;-73
2023/01/14 10:12:41;;;;;;;13.57;2.95;;;6.20;99.90;;;;;;5078189;28;25148;-70
2023/01/14 10:15:27;;;;;;;12.52;1.75;;;6.10;99.90;;;;;;5076963;28;25051;-72
2023/01/14 10:18:15;;;;;;;13.10;1.33;;;6.10;99.90;;;;;;5078560;28;25085;-72
2023/01/14 10:20:59;;;;;;;9.77;1.58;;;6.10;99.90;;;;;;5077894;28;25108;-71
2023/01/14 10:23:40;;;;;;;5.40;1.35;;;6.10;99.90;;;;;;5078149;28;25106;-73
2023/01/14 10:26:14;;;;;;;8.55;2.03;;;6.10;99.90;;;;;;5077756;28;25100;-73
2023/01/14 10:28:45;;;;;;;15.10;2.08;;;6.10;99.90;;;;;;5077731;28;25154;-71
2023/01/14 10:31:44;;;;;;;11.50;2.33;;;6.10;99.90;;;;;;5077933;28;25076;-71
2023/01/14 10:34:18;;;;;;;10.13;2.55;;;6.00;99.90;;;;;;5065177;28;25109;-71
2023/01/14 10:36:46;;;;;;;5.32;1.45;;;6.00;99.90;;;;;;5057448;28;25108;-71
2023/01/14 10:39:13;;;;;;;12.10;1.63;;;6.10;99.90;;;;;;5056394;28;25062;-73
2023/01/14 10:41:50;;;;;;;12.27;1.80;;;6.10;99.90;;;;;;5057443;28;25055;-72
2023/01/14 10:44:28;;;;;;;6.30;1.55;;;6.00;99.90;;;;;;5057423;28;25131;-73
2023/01/14 10:47:15;;;;;;;14.52;2.47;;;6.00;99.90;;;;;;5057916;28;25105;-71
2023/01/14 10:49:54;;;;;;;8.82;1.58;;;6.00;99.90;;;;;;5056984;28;25102;-72
2023/01/14 10:52:28;;;;;;;10.15;1.33;;;5.90;99.90;;;;;;5057711;28;25076;-70
2023/01/14 10:55:13;;;;;;;22.25;3.75;;;5.90;99.90;;;;;;5057341;28;25133;-70
2023/01/14 10:57:52;;;;;;;14.30;3.47;;;5.90;99.90;;;;;;5040416;28;25064;-71
2023/01/14 11:00:39;;;;;;;24.20;5.45;;;5.80;99.90;;;;;;5057091;28;25058;-70
2023/01/14 11:03:21;;;;;;;;;;;5.80;99.90;;;;;;5057472;28;25123;-72
2023/01/14 11:06:03;;;;;;;13.65;2.80;;;5.80;99.90;;;;;;5057286;28;25263;-72
2023/01/14 11:08:50;;;;;;;37.90;12.63;;;5.80;99.90;;;;;;5056970;28;25081;-73
2023/01/14 11:11:38;;;;;;;12.90;3.78;;;5.80;99.90;;;;;;5056912;28;25055;-72
2023/01/14 11:14:31;;;;;;;27.92;8.07;;;5.90;99.90;;;;;;5057164;28;25050;-71
2023/01/14 11:16:59;;;;;;;16.42;4.07;;;5.90;99.90;;;;;;5057131;28;25056;-71
2023/01/14 11:19:27;;;;;;;11.10;2.58;;;5.90;99.90;;;;;;5057435;28;25074;-71
2023/01/14 11:22:00;;;;;;;12.38;2.38;;;5.90;99.90;;;;;;5056650;28;25060;-73
2023/01/14 11:24:44;;;;;;;9.07;1.55;;;5.90;99.90;;;;;;5056710;28;25088;-73
2023/01/14 11:27:21;;;;;;;12.77;2.22;;;6.00;99.90;;;;;;5057238;28;25060;-70
2023/01/14 11:29:57;;;;;;;10.88;1.88;;;6.00;99.90;;;;;;5056585;28;25055;-69
2023/01/14 11:32:36;;;;;;;6.72;1.75;;;6.00;99.90;;;;;;5056605;28;25079;-71
2023/01/14 11:35:07;;;;;;;13.13;1.92;;;6.00;99.90;;;;;;5056487;28;25145;-70
2023/01/14 11:37:47;;;;;;;9.50;1.98;;;6.10;99.90;;;;;;5056483;28;25105;-70
2023/01/14 11:43:27;;;;;;;11.40;2.53;;;6.10;99.90;;;;;;5056981;28;25067;-71
2023/01/14 11:46:16;;;;;;;12.20;2.10;;;6.10;99.90;;;;;;5056387;28;25070;-70
2023/01/14 11:48:43;;;;;;;8.48;1.77;;;6.20;99.90;;;;;;5056564;28;25122;-69
2023/01/14 11:51:22;;;;;;;9.40;2.03;;;6.20;99.90;;;;;;5056843;28;25097;-69
2023/01/14 11:53:52;;;;;;;10.93;2.40;;;6.20;99.90;;;;;;5038626;28;25067;-69
2023/01/14 11:56:29;;;;;;;6.65;1.67;;;6.20;99.90;;;;;;5056210;28;25070;-72
2023/01/14 11:58:56;;;;;;;15.10;2.50;;;6.30;99.90;;;;;;5038698;28;25073;-73
2023/01/14 12:01:29;;;;;;;10.13;2.03;;;6.30;99.90;;;;;;5055444;28;25125;-70
2023/01/14 12:04:09;;;;;;;14.43;2.38;;;6.30;99.90;;;;;;5056738;28;25268;-72
2023/01/14 12:07:23;;;;;;;8.90;2.85;;;6.30;99.90;;;;;;5056440;28;25112;-70
2023/01/14 12:10:22;;;;;;;10.43;2.22;;;6.40;99.90;;;;;;5015424;28;25067;-72
2023/01/14 12:19:39;;;;;;;14.40;4.65;;;6.40;99.90;;;;;;4994999;28;25106;-72
2023/01/14 12:22:19;;;;;;;15.63;4.60;;;6.40;99.90;;;;;;5050363;28;25065;-72
2023/01/14 12:25:12;;;;;;;12.88;4.10;;;6.50;99.90;;;;;;5055999;28;25093;-72
2023/01/14 12:28:06;;;;;;;13.85;3.75;;;6.50;99.90;;;;;;5041421;28;25116;-71
2023/01/14 12:31:13;;;;;;;6.93;2.83;;;6.50;99.90;;;;;;5056006;28;25089;-93
2023/01/14 12:33:51;;;;;;;11.70;3.00;;;6.50;99.90;;;;;;5034784;28;25064;-76
2023/01/14 12:36:23;;;;;;;4.55;1.27;;;6.50;99.90;;;;;;5075899;28;25049;-76
2023/01/14 12:47:42;;;;;;;7.70;2.00;;;6.60;99.90;;;;;;5076040;28;25107;-79
2023/01/14 12:50:13;;;;;;;6.18;2.53;;;6.60;99.90;;;;;;5075823;28;25111;-80
2023/01/14 12:52:50;;;;;;;10.73;2.55;;;6.60;99.90;;;;;;5075807;28;25055;-82
2023/01/14 12:55:22;;;;;;;10.98;2.65;;;6.60;99.90;;;;;;5075976;28;25125;-77
2023/01/14 12:57:53;;;;;;;6.82;1.55;;;6.70;99.90;;;;;;5076205;28;25061;-78
2023/01/14 13:00:33;;;;;;;2.65;1.23;;;6.70;99.90;;;;;;5075983;28;25050;-77
2023/01/14 13:03:08;;;;;;;3.50;1.55;;;6.70;99.90;;;;;;5075779;28;25130;-77
2023/01/14 13:05:44;;;;;;;16.93;3.17;;;6.70;99.90;;;;;;5075700;28;25092;-77
2023/01/14 13:08:32;;;;;;;4.65;1.75;;;6.70;99.90;;;;;;5075788;28;25100;-77
2023/01/14 13:11:37;;;;;;;3.03;1.27;;;6.70;99.90;;;;;;5075600;28;25054;-79
2023/01/14 13:14:04;;;;;;;5.50;1.45;;;6.80;99.90;;;;;;5079443;28;25067;-79
2023/01/14 13:16:45;;;;;;;3.38;0.90;;;6.70;99.90;;;;;;5079051;28;25069;-79
2023/01/14 13:19:31;;;;;;;6.05;1.00;;;6.80;99.90;;;;;;5079352;28;25124;-78
2023/01/14 13:22:04;;;;;;;2.17;0.95;;;6.80;99.90;;;;;;5079348;28;25078;-77
2023/01/14 13:24:33;;;;;;;4.13;1.40;;;6.80;99.90;;;;;;5079003;28;25062;-83
2023/01/14 13:27:32;;;;;;;1.92;0.90;;;6.80;99.90;;;;;;5077850;28;25144;-77
2023/01/14 13:30:28;;;;;;;14.20;5.32;;;6.80;99.90;;;;;;5078963;28;25160;-79
2023/01/14 13:33:02;;;;;;;2.63;1.20;;;6.70;99.90;;;;;;5062017;28;25071;-78
2023/01/14 13:35:32;;;;;;;4.90;1.00;;;6.70;99.90;;;;;;5058677;28;25072;-78
2023/01/14 13:38:02;;;;;;;1.70;0.90;;;6.70;99.90;;;;;;5058922;28;25071;-81
2023/01/14 13:40:36;;;;;;;4.75;0.93;;;6.80;99.90;;;;;;5040916;28;25053;-80
2023/01/14 13:43:22;;;;;;;5.45;1.10;;;6.80;99.90;;;;;;5058704;28;25051;-81
2023/01/14 13:45:59;;;;;;;2.28;0.90;;;6.80;99.90;;;;;;5058865;28;25063;-81
2023/01/14 13:48:31;;;;;;;1.42;1.02;;;6.70;99.90;;;;;;5058416;28;25082;-79
2023/01/14 13:51:27;;;;;;;1.92;0.70;;;6.80;99.90;;;;;;5040735;28;25050;-77
2023/01/14 13:54:09;;;;;;;3.58;0.80;;;6.80;99.90;;;;;;5058775;28;25075;-81
2023/01/14 13:56:44;;;;;;;2.55;0.82;;;6.80;99.90;;;;;;5058570;28;25058;-80
2023/01/14 13:59:29;;;;;;;2.92;1.23;;;6.80;99.90;;;;;;5058936;28;25123;-84
2023/01/14 14:01:59;;;;;;;2.67;0.90;;;6.80;99.90;;;;;;5040205;28;25055;-77
2023/01/14 14:04:55;;;;;;;2.88;0.63;;;6.80;99.90;;;;;;5058678;28;25055;-77
2023/01/14 14:07:44;;;;;;;2.30;1.02;;;6.80;99.90;;;;;;5058079;28;25063;-78
2023/01/14 14:10:31;;;;;;;5.35;1.10;;;6.80;99.90;;;;;;5058637;28;25053;-79
2023/01/14 14:16:26;;;;;;;2.58;1.38;;;6.90;99.90;;;;;;5058198;28;25106;-78